createdAt,value
2023-06-09T00:02:13.098Z,1.80
2023-06-09T00:04:40.251Z,2.05
2023-06-09T00:07:08.175Z,1.50
2023-06-09T00:09:35.010Z,1.40
2023-06-09T00:12:01.946Z,1.50
2023-06-09T00:14:29.535Z,1.58
2023-06-09T00:16:56.711Z,1.70
2023-06-09T00:19:25.576Z,1.75
2023-06-09T00:21:52.872Z,1.83
2023-06-09T00:24:21.617Z,1.90
2023-06-09T00:26:49.878Z,1.90
2023-06-09T00:29:18.500Z,1.67
2023-06-09T00:31:46.038Z,2.05
2023-06-09T00:34:12.995Z,1.95
2023-06-09T00:36:41.330Z,2.20
2023-06-09T00:39:09.688Z,2.30
2023-06-09T00:41:40.972Z,2.83
2023-06-09T00:44:08.189Z,2.47
2023-06-09T00:46:36.782Z,3.00
2023-06-09T00:49:03.969Z,2.70
2023-06-09T00:51:34.901Z,3.15
2023-06-09T00:54:02.612Z,3.33
2023-06-09T00:56:33.059Z,3.40
2023-06-09T00:59:00.077Z,3.53
2023-06-09T01:01:30.212Z,3.42
2023-06-09T01:03:57.264Z,3.10
2023-06-09T01:06:41.123Z,3.90
2023-06-09T01:09:28.262Z,3.60
2023-06-09T01:12:11.715Z,3.72
2023-06-09T01:15:10.317Z,3.35
2023-06-09T01:17:40.510Z,3.40
2023-06-09T01:20:09.110Z,3.53
2023-06-09T01:23:06.056Z,3.70
2023-06-09T01:25:44.619Z,3.30
2023-06-09T01:28:17.581Z,4.15
2023-06-09T01:30:48.118Z,3.85
2023-06-09T01:33:22.351Z,3.85
2023-06-09T01:35:50.818Z,3.75
2023-06-09T01:38:21.465Z,3.00
2023-06-09T01:40:49.147Z,3.25
2023-06-09T01:43:16.651Z,3.20
2023-06-09T01:45:43.590Z,3.63
2023-06-09T01:48:21.346Z,3.10
2023-06-09T01:50:56.904Z,3.70
2023-06-09T01:53:33.312Z,3.72
2023-06-09T01:56:09.079Z,4.78
2023-06-09T01:58:45.048Z,4.43
2023-06-09T02:01:16.595Z,4.20
2023-06-09T02:03:45.459Z,3.97
2023-06-09T02:06:13.470Z,4.65
2023-06-09T02:08:41.070Z,4.10
2023-06-09T02:11:10.606Z,4.80
2023-06-09T02:13:37.776Z,4.32
2023-06-09T02:16:04.823Z,4.47
2023-06-09T02:18:33.366Z,4.20
2023-06-09T02:21:00.396Z,3.90
2023-06-09T02:23:27.328Z,4.38
2023-06-09T02:25:54.387Z,4.25
2023-06-09T02:28:21.218Z,4.03
2023-06-09T02:30:48.126Z,4.05
2023-06-09T02:33:19.606Z,4.20
2023-06-09T02:35:46.776Z,4.10
2023-06-09T02:38:14.336Z,4.05
2023-06-09T02:40:45.257Z,4.05
2023-06-09T02:43:12.288Z,4.20
2023-06-09T02:45:39.737Z,3.88
2023-06-09T02:48:06.882Z,4.32
2023-06-09T02:50:34.356Z,4.25
2023-06-09T02:53:04.146Z,3.70
2023-06-09T02:55:33.647Z,3.50
2023-06-09T02:58:01.053Z,3.40
2023-06-09T03:00:29.708Z,4.30
2023-06-09T03:02:58.486Z,3.47
2023-06-09T03:05:28.708Z,3.80
2023-06-09T03:07:56.290Z,3.15
2023-06-09T03:10:23.850Z,3.17
2023-06-09T03:12:51.861Z,3.22
2023-06-09T03:15:19.945Z,2.60
2023-06-09T03:17:49.152Z,3.05
2023-06-09T03:20:17.294Z,3.35
2023-06-09T03:22:46.617Z,2.75
2023-06-09T03:25:14.669Z,3.20
2023-06-09T03:27:41.957Z,2.70
2023-06-09T03:30:09.401Z,2.60
2023-06-09T03:32:37.062Z,2.50
2023-06-09T03:35:04.997Z,3.70
2023-06-09T03:37:31.973Z,2.67
2023-06-09T03:39:59.502Z,2.58
2023-06-09T03:42:28.784Z,2.65
2023-06-09T03:45:00.024Z,2.53
2023-06-09T03:47:29.069Z,2.80
2023-06-09T03:49:55.864Z,2.70
2023-06-09T03:52:23.400Z,2.17
2023-06-09T03:54:51.827Z,2.30
2023-06-09T03:57:18.872Z,2.50
2023-06-09T03:59:45.772Z,2.03
2023-06-09T04:02:13.020Z,2.38
2023-06-09T04:04:39.995Z,2.28
2023-06-09T04:07:07.086Z,2.10
2023-06-09T04:09:35.583Z,2.08
2023-06-09T04:12:02.857Z,2.45
2023-06-09T04:14:30.336Z,2.40
2023-06-09T04:16:57.265Z,2.35
2023-06-09T04:19:24.921Z,2.58
2023-06-09T04:21:52.388Z,2.80
2023-06-09T04:24:19.630Z,2.83
2023-06-09T04:26:49.181Z,2.67
2023-06-09T04:29:16.843Z,2.75
2023-06-09T04:31:46.772Z,3.20
2023-06-09T04:34:14.329Z,3.30
2023-06-09T04:36:46.495Z,2.75
2023-06-09T04:39:15.426Z,3.05
2023-06-09T04:41:43.454Z,3.10
2023-06-09T04:44:11.315Z,2.88
2023-06-09T04:46:42.572Z,3.10
2023-06-09T04:49:13.825Z,3.13
2023-06-09T04:51:47.971Z,3.10
2023-06-09T04:54:21.518Z,3.20
2023-06-09T04:56:53.569Z,3.30
2023-06-09T04:59:23.261Z,3.55
2023-06-09T05:01:50.168Z,3.42
2023-06-09T05:04:18.638Z,3.30
2023-06-09T05:06:46.162Z,3.33
2023-06-09T05:09:14.437Z,3.30
2023-06-09T05:11:42.237Z,3.65
2023-06-09T05:14:09.548Z,3.47
2023-06-09T05:16:38.977Z,3.80
2023-06-09T05:19:08.673Z,3.58
2023-06-09T05:21:37.676Z,4.25
2023-06-09T05:24:05.158Z,4.50
2023-06-09T05:26:33.812Z,4.75
2023-06-09T05:29:01.077Z,4.53
2023-06-09T05:31:28.048Z,4.57
2023-06-09T05:33:54.774Z,4.63
2023-06-09T05:36:21.619Z,5.10
2023-06-09T05:38:52.099Z,5.03
2023-06-09T05:41:18.908Z,4.82
2023-06-09T05:43:45.689Z,4.95
2023-06-09T05:46:12.587Z,4.18
2023-06-09T05:48:39.364Z,5.60
2023-06-09T05:51:06.168Z,5.68
2023-06-09T05:53:35.060Z,6.28
2023-06-09T05:56:02.070Z,5.75
2023-06-09T05:58:29.281Z,6.18
2023-06-09T06:00:59.470Z,6.30
2023-06-09T06:03:27.675Z,6.38
2023-06-09T06:05:54.734Z,6.32
2023-06-09T06:08:21.837Z,6.57
2023-06-09T06:10:48.649Z,6.88
2023-06-09T06:13:15.813Z,6.93
2023-06-09T06:15:42.693Z,7.10
2023-06-09T06:18:09.478Z,7.28
2023-06-09T06:20:36.340Z,6.93
2023-06-09T06:23:03.688Z,8.00
2023-06-09T06:25:33.876Z,7.25
2023-06-09T06:28:00.719Z,7.88
2023-06-09T06:30:28.384Z,7.50
2023-06-09T06:32:55.211Z,7.57
2023-06-09T06:35:27.348Z,7.93
2023-06-09T06:37:54.982Z,7.43
2023-06-09T06:40:21.719Z,7.50
2023-06-09T06:42:48.630Z,7.43
2023-06-09T06:45:23.863Z,7.47
2023-06-09T06:47:51.125Z,7.68
2023-06-09T06:50:18.111Z,7.85
2023-06-09T06:52:44.905Z,7.35
2023-06-09T06:55:11.699Z,7.60
2023-06-09T06:57:39.774Z,7.80
2023-06-09T07:00:15.657Z,7.15
2023-06-09T07:02:47.773Z,7.45
2023-06-09T07:05:16.034Z,6.10
2023-06-09T07:07:44.815Z,6.35
2023-06-09T07:10:12.054Z,6.72
2023-06-09T07:12:38.852Z,7.47
2023-06-09T07:15:06.647Z,6.32
2023-06-09T07:17:33.545Z,6.88
2023-06-09T07:20:01.356Z,6.85
2023-06-09T07:22:29.438Z,6.70
2023-06-09T07:24:56.190Z,7.20
2023-06-09T07:27:25.359Z,6.78
2023-06-09T07:29:52.107Z,6.82
2023-06-09T07:32:19.029Z,7.65
2023-06-09T07:34:46.475Z,7.38
2023-06-09T07:37:16.209Z,7.03
2023-06-09T07:39:43.097Z,7.15
2023-06-09T07:42:09.901Z,7.55
2023-06-09T07:44:36.736Z,6.70
2023-06-09T07:47:03.915Z,7.40
2023-06-09T07:49:30.666Z,7.10
2023-06-09T07:52:06.509Z,6.95
2023-06-09T07:54:37.103Z,7.28
2023-06-09T07:57:04.133Z,7.53
2023-06-09T07:59:31.154Z,7.72
2023-06-09T08:01:57.900Z,6.85
2023-06-09T08:04:24.836Z,6.95
2023-06-09T08:06:51.659Z,6.65
2023-06-09T08:09:18.664Z,7.35
2023-06-09T08:11:45.512Z,7.15
2023-06-09T08:14:14.832Z,7.32
2023-06-09T08:16:41.763Z,6.32
2023-06-09T08:19:10.665Z,6.22
2023-06-09T08:21:46.987Z,6.65
2023-06-09T08:24:14.552Z,6.18
2023-06-09T08:26:42.394Z,6.18
2023-06-09T08:29:09.573Z,6.53
2023-06-09T08:31:38.706Z,6.15
2023-06-09T08:34:05.679Z,6.47
2023-06-09T08:36:33.343Z,6.20
2023-06-09T08:39:00.300Z,6.35
2023-06-09T08:41:33.552Z,7.03
2023-06-09T08:44:00.388Z,6.05
2023-06-09T08:46:34.153Z,6.72
2023-06-09T08:49:01.812Z,6.22
2023-06-09T08:51:38.470Z,6.18
2023-06-09T08:54:05.669Z,6.60
2023-06-09T08:56:32.535Z,6.47
2023-06-09T08:58:59.756Z,6.60
2023-06-09T09:01:28.056Z,6.20
2023-06-09T09:03:54.948Z,6.38
2023-06-09T09:06:21.801Z,6.25
2023-06-09T09:08:48.586Z,6.50
2023-06-09T09:11:15.390Z,6.30
2023-06-09T09:13:42.201Z,6.72
2023-06-09T09:16:17.228Z,6.60
2023-06-09T09:18:48.638Z,7.50
2023-06-09T09:21:23.408Z,6.60
2023-06-09T09:24:02.581Z,6.18
2023-06-09T09:26:31.313Z,6.18
2023-06-09T09:29:10.662Z,7.07
2023-06-09T09:31:42.868Z,7.10
2023-06-09T09:34:16.040Z,6.85
2023-06-09T09:36:46.643Z,6.93
2023-06-09T09:39:16.109Z,7.07
2023-06-09T09:42:08.126Z,7.00
2023-06-09T09:44:43.784Z,6.65
2023-06-09T09:47:16.955Z,7.63
2023-06-09T09:49:51.538Z,7.53
2023-06-09T09:52:30.308Z,7.13
2023-06-09T09:55:00.693Z,7.10
2023-06-09T09:57:32.199Z,7.40
2023-06-09T10:00:05.422Z,7.05
2023-06-09T10:02:44.409Z,6.95
2023-06-09T10:05:11.874Z,6.85
2023-06-09T10:07:42.049Z,6.85
2023-06-09T10:10:12.389Z,6.75
2023-06-09T10:12:40.057Z,7.43
2023-06-09T10:15:09.890Z,7.45
2023-06-09T10:17:37.979Z,6.90
2023-06-09T10:20:06.309Z,6.80
2023-06-09T10:22:33.287Z,6.82
2023-06-09T10:25:00.618Z,6.82
2023-06-09T10:27:27.860Z,7.10
2023-06-09T10:29:54.622Z,6.60
2023-06-09T10:32:27.410Z,6.20
2023-06-09T10:34:56.474Z,6.72
2023-06-09T10:37:30.929Z,6.55
2023-06-09T10:40:10.607Z,6.20
2023-06-09T10:42:40.189Z,6.40
2023-06-09T10:45:18.832Z,6.68
2023-06-09T10:47:47.863Z,6.70
2023-06-09T10:50:33.447Z,6.10
2023-06-09T10:53:01.415Z,5.75
2023-06-09T10:55:29.396Z,5.47
2023-06-09T10:57:57.974Z,5.63
2023-06-09T11:00:26.378Z,6.95
2023-06-09T11:03:10.160Z,7.00
2023-06-09T11:05:59.361Z,7.53
2023-06-09T11:08:26.909Z,6.57
2023-06-09T11:10:53.820Z,6.78
2023-06-09T11:13:41.138Z,6.90
2023-06-09T11:16:09.920Z,6.32
2023-06-09T11:18:37.003Z,5.83
2023-06-09T11:21:17.702Z,5.32
2023-06-09T11:24:01.447Z,5.55
2023-06-09T11:26:29.000Z,7.65
2023-06-09T11:28:58.593Z,8.68
2023-06-09T11:31:26.049Z,8.68
2023-06-09T11:33:54.992Z,8.90
2023-06-09T11:36:27.254Z,9.25
2023-06-09T11:39:00.302Z,9.30
2023-06-09T11:41:27.514Z,8.90
2023-06-09T11:43:57.206Z,8.90
2023-06-09T11:46:24.302Z,9.15
2023-06-09T11:48:59.182Z,8.88
2023-06-09T11:51:25.953Z,7.95
2023-06-09T11:53:52.733Z,8.25
2023-06-09T11:56:19.688Z,7.47
2023-06-09T11:58:46.562Z,6.90
2023-06-09T12:01:13.465Z,6.43
2023-06-09T12:03:40.266Z,6.80
2023-06-09T12:06:07.412Z,7.28
2023-06-09T12:08:34.407Z,7.30
2023-06-09T12:11:04.185Z,7.95
2023-06-09T12:13:30.976Z,7.55
2023-06-09T12:15:57.746Z,7.43
2023-06-09T12:18:24.717Z,7.07
2023-06-09T12:20:52.394Z,6.97
2023-06-09T12:23:19.281Z,7.18
2023-06-09T12:25:48.206Z,7.35
2023-06-09T12:28:29.282Z,7.50
2023-06-09T12:31:16.738Z,6.95
2023-06-09T12:33:49.073Z,5.70
2023-06-09T12:36:15.986Z,6.05
2023-06-09T12:38:47.009Z,6.28
2023-06-09T12:41:15.732Z,5.50
2023-06-09T12:43:52.552Z,5.83
2023-06-09T12:46:41.757Z,5.80
2023-06-09T12:49:10.136Z,5.75
2023-06-09T12:51:47.033Z,5.15
2023-06-09T12:54:14.379Z,4.88
2023-06-09T12:56:41.523Z,5.47
2023-06-09T12:59:10.185Z,5.03
2023-06-09T13:01:37.268Z,5.38
2023-06-09T13:04:04.663Z,5.45
2023-06-09T13:06:32.642Z,5.50
2023-06-09T13:09:01.453Z,6.00
2023-06-09T13:11:28.484Z,6.57
2023-06-09T13:13:55.292Z,5.90
2023-06-09T13:16:22.067Z,5.85
2023-06-09T13:18:49.376Z,5.63
2023-06-09T13:21:26.979Z,5.82
2023-06-09T13:24:03.250Z,5.57
2023-06-09T13:26:30.103Z,5.93
2023-06-09T13:28:57.016Z,5.28
2023-06-09T13:31:24.196Z,6.25
2023-06-09T13:33:51.308Z,5.50
2023-06-09T13:36:19.485Z,5.13
2023-06-09T13:38:46.319Z,5.50
2023-06-09T13:41:15.703Z,5.53
2023-06-09T13:43:43.306Z,5.40
2023-06-09T13:46:10.566Z,5.03
2023-06-09T13:48:37.688Z,5.20
2023-06-09T13:51:04.667Z,5.60
2023-06-09T13:53:31.389Z,5.38
2023-06-09T13:55:58.737Z,5.20
2023-06-09T13:58:25.424Z,5.05
2023-06-09T14:00:52.279Z,4.57
2023-06-09T14:03:19.344Z,4.97
2023-06-09T14:05:46.244Z,4.32
2023-06-09T14:08:13.072Z,4.50
2023-06-09T14:10:40.478Z,4.30
2023-06-09T14:13:08.198Z,4.70
2023-06-09T14:15:34.985Z,4.60
2023-06-09T14:18:03.077Z,4.95
2023-06-09T14:20:30.150Z,4.97
2023-06-09T14:22:59.768Z,5.22
2023-06-09T14:25:27.550Z,4.45
2023-06-09T14:27:55.221Z,4.78
2023-06-09T14:30:23.230Z,4.63
2023-06-09T14:32:51.610Z,4.55
2023-06-09T14:35:24.953Z,4.60
2023-06-09T14:37:57.824Z,4.05
2023-06-09T14:40:26.315Z,4.15
2023-06-09T14:42:53.190Z,3.90
2023-06-09T14:45:22.066Z,4.28
2023-06-09T14:47:54.055Z,4.95
2023-06-09T14:50:32.278Z,4.15
2023-06-09T14:53:00.335Z,4.65
2023-06-09T14:55:29.602Z,4.30
2023-06-09T14:57:59.515Z,4.60
2023-06-09T15:00:27.225Z,4.13
2023-06-09T15:02:58.652Z,3.60
2023-06-09T15:05:27.800Z,3.83
2023-06-09T15:07:56.251Z,3.78
2023-06-09T15:10:24.373Z,3.17
2023-06-09T15:12:51.767Z,3.70
2023-06-09T15:15:20.275Z,3.53
2023-06-09T15:17:47.300Z,4.00
2023-06-09T15:20:15.536Z,3.72
2023-06-09T15:22:42.321Z,3.92
2023-06-09T15:25:11.131Z,3.78
2023-06-09T15:27:38.615Z,3.80
2023-06-09T15:30:06.671Z,3.72
2023-06-09T15:32:33.706Z,4.32
2023-06-09T15:35:00.988Z,4.32
2023-06-09T15:37:27.700Z,4.40
2023-06-09T15:39:54.676Z,5.20
2023-06-09T15:42:21.552Z,5.00
2023-06-09T15:44:48.241Z,5.60
2023-06-09T15:47:15.109Z,4.93
2023-06-09T15:49:41.844Z,5.32
2023-06-09T15:52:09.089Z,5.32
2023-06-09T15:54:35.893Z,5.00
2023-06-09T15:57:03.008Z,5.00
2023-06-09T15:59:30.518Z,4.80
2023-06-09T16:01:57.610Z,4.93
2023-06-09T16:04:24.838Z,4.80
2023-06-09T16:06:51.931Z,5.30
2023-06-09T16:09:19.018Z,4.38
2023-06-09T16:11:45.951Z,4.93
2023-06-09T16:14:12.727Z,4.90
2023-06-09T16:16:39.490Z,4.82
2023-06-09T16:19:06.252Z,4.93
2023-06-09T16:21:34.206Z,4.65
2023-06-09T16:24:01.189Z,4.53
2023-06-09T16:26:28.751Z,5.20
2023-06-09T16:28:55.845Z,5.18
2023-06-09T16:31:22.647Z,4.45
2023-06-09T16:33:49.401Z,4.53
2023-06-09T16:36:16.153Z,4.70
2023-06-09T16:38:43.672Z,4.10
2023-06-09T16:41:11.763Z,4.38
2023-06-09T16:43:39.819Z,4.22
2023-06-09T16:46:06.860Z,4.40
2023-06-09T16:48:36.704Z,4.50
2023-06-09T16:51:04.426Z,4.05
2023-06-09T16:53:31.678Z,3.90
2023-06-09T16:55:58.880Z,3.65
2023-06-09T16:58:25.897Z,3.95
2023-06-09T17:00:52.615Z,4.32
2023-06-09T17:03:19.575Z,4.60
2023-06-09T17:05:46.559Z,4.43
2023-06-09T17:08:13.384Z,4.68
2023-06-09T17:10:40.306Z,5.32
2023-06-09T17:13:07.093Z,5.60
2023-06-09T17:15:33.903Z,6.32
2023-06-09T17:18:00.949Z,6.50
2023-06-09T17:20:28.573Z,6.88
2023-06-09T17:22:55.842Z,6.32
2023-06-09T17:25:22.848Z,6.05
2023-06-09T17:27:50.090Z,6.25
2023-06-09T17:30:16.948Z,6.18
2023-06-09T17:32:45.139Z,6.15
2023-06-09T17:35:13.414Z,5.28
2023-06-09T17:37:41.833Z,5.32
2023-06-09T17:40:11.063Z,5.50
2023-06-09T17:42:38.173Z,5.38
2023-06-09T17:45:10.204Z,5.15
2023-06-09T17:47:38.023Z,5.00
2023-06-09T17:50:08.651Z,5.35
2023-06-09T17:52:35.573Z,5.50
2023-06-09T17:55:04.481Z,4.88
2023-06-09T17:57:32.545Z,4.93
2023-06-09T18:00:01.140Z,5.00
2023-06-09T18:02:28.064Z,5.57
2023-06-09T18:04:55.525Z,4.95
2023-06-09T18:07:22.419Z,4.55
2023-06-09T18:09:49.192Z,5.00
2023-06-09T18:12:17.768Z,4.85
2023-06-09T18:14:44.550Z,4.80
2023-06-09T18:17:11.542Z,4.90
2023-06-09T18:19:38.435Z,4.82
2023-06-09T18:22:05.609Z,4.82
2023-06-09T18:24:32.339Z,4.70
2023-06-09T18:26:59.989Z,4.90
2023-06-09T18:29:26.950Z,4.45
2023-06-09T18:31:54.161Z,5.25
2023-06-09T18:34:21.188Z,5.63
2023-06-09T18:36:48.871Z,5.30
2023-06-09T18:39:16.889Z,4.57
2023-06-09T18:41:43.714Z,4.90
2023-06-09T18:44:20.134Z,5.10
2023-06-09T18:46:47.303Z,4.65
2023-06-09T18:49:14.454Z,4.90
2023-06-09T18:51:41.728Z,5.28
2023-06-09T18:54:08.597Z,5.00
2023-06-09T18:56:36.207Z,5.18
2023-06-09T18:59:02.967Z,5.57
2023-06-09T19:01:30.372Z,5.63
2023-06-09T19:03:57.266Z,5.03
2023-06-09T19:06:24.085Z,5.28
2023-06-09T19:08:51.050Z,5.10
2023-06-09T19:11:17.875Z,5.20
2023-06-09T19:13:44.664Z,5.13
2023-06-09T19:16:11.715Z,4.60
2023-06-09T19:18:38.546Z,5.10
2023-06-09T19:21:05.450Z,4.80
2023-06-09T19:23:32.188Z,4.72
2023-06-09T19:25:59.056Z,4.97
2023-06-09T19:28:25.777Z,4.90
2023-06-09T19:30:52.759Z,3.97
2023-06-09T19:33:19.765Z,4.07
2023-06-09T19:35:46.706Z,3.90
2023-06-09T19:38:14.324Z,3.80
2023-06-09T19:40:41.234Z,4.00
2023-06-09T19:43:08.252Z,3.75
2023-06-09T19:45:35.007Z,3.80
2023-06-09T19:48:02.885Z,3.67
2023-06-09T19:50:36.301Z,4.07
2023-06-09T19:53:03.346Z,4.00
2023-06-09T19:55:31.033Z,3.60
2023-06-09T19:57:57.836Z,3.70
2023-06-09T20:00:24.680Z,3.60
2023-06-09T20:02:51.721Z,3.53
2023-06-09T20:05:18.842Z,3.20
2023-06-09T20:07:46.171Z,3.10
2023-06-09T20:10:13.120Z,2.78
2023-06-09T20:12:40.060Z,2.60
2023-06-09T20:15:07.851Z,2.25
2023-06-09T20:17:35.073Z,2.30
2023-06-09T20:20:02.199Z,2.15
2023-06-09T20:22:29.056Z,2.15
2023-06-09T20:24:56.031Z,2.20
2023-06-09T20:27:22.894Z,2.28
2023-06-09T20:29:49.715Z,2.38
2023-06-09T20:32:16.609Z,2.80
2023-06-09T20:34:43.729Z,2.38
2023-06-09T20:37:10.589Z,2.47
2023-06-09T20:39:40.488Z,2.65
2023-06-09T20:42:07.520Z,2.00
2023-06-09T20:44:34.441Z,2.45
2023-06-09T20:47:03.057Z,2.65
2023-06-09T20:49:30.162Z,2.10
2023-06-09T20:51:57.016Z,2.28
2023-06-09T20:54:25.073Z,2.60
2023-06-09T20:56:52.030Z,2.13
2023-06-09T20:59:18.880Z,2.30
2023-06-09T21:01:47.609Z,2.50
2023-06-09T21:04:15.330Z,2.45
2023-06-09T21:06:42.697Z,2.80
2023-06-09T21:09:09.658Z,3.00
2023-06-09T21:11:37.142Z,3.00
2023-06-09T21:14:06.461Z,2.60
2023-06-09T21:16:33.440Z,2.78
2023-06-09T21:19:00.535Z,2.83
2023-06-09T21:21:29.607Z,2.45
2023-06-09T21:23:56.430Z,2.70
2023-06-09T21:26:26.020Z,2.90
2023-06-09T21:31:24.048Z,3.20
2023-06-09T21:33:53.588Z,2.72
2023-06-09T21:36:21.963Z,2.90
2023-06-09T21:38:48.676Z,2.67
2023-06-09T21:41:18.310Z,3.00
2023-06-09T21:43:45.035Z,2.63
2023-06-09T21:46:14.239Z,3.10
2023-06-09T21:48:43.667Z,3.20
2023-06-09T21:51:12.209Z,2.90
2023-06-09T21:53:40.886Z,3.20
2023-06-09T21:56:07.805Z,2.97
2023-06-09T21:58:34.633Z,3.17
2023-06-09T22:01:01.744Z,3.00
2023-06-09T22:03:28.680Z,3.20
2023-06-09T22:05:55.500Z,3.15
2023-06-09T22:08:22.473Z,3.30
2023-06-09T22:10:49.388Z,3.28
2023-06-09T22:13:18.914Z,3.17
2023-06-09T22:15:46.163Z,2.85
2023-06-09T22:18:18.127Z,2.92
2023-06-09T22:20:46.252Z,2.90
2023-06-09T22:23:13.422Z,3.42
2023-06-09T22:25:40.132Z,3.03
2023-06-09T22:28:07.037Z,3.00
2023-06-09T22:30:33.960Z,2.75
2023-06-09T22:33:02.161Z,2.95
2023-06-09T22:35:29.640Z,2.70
2023-06-09T22:37:56.640Z,2.70
2023-06-09T22:40:23.404Z,3.10
2023-06-09T22:42:51.026Z,3.05
2023-06-09T22:45:18.170Z,2.95
2023-06-09T22:47:46.433Z,2.53
2023-06-09T22:50:14.618Z,2.80
2023-06-09T22:52:44.701Z,2.45
2023-06-09T22:55:15.791Z,2.60
2023-06-09T22:57:48.104Z,2.78
2023-06-09T23:00:16.424Z,2.30
2023-06-09T23:02:43.637Z,2.50
2023-06-09T23:05:13.167Z,2.33
2023-06-09T23:10:10.004Z,2.47
2023-06-09T23:12:36.957Z,2.40
2023-06-09T23:15:07.708Z,2.20
2023-06-09T23:17:35.752Z,2.20
2023-06-09T23:20:07.021Z,2.55
2023-06-09T23:22:36.442Z,2.20
2023-06-09T23:27:37.025Z,2.47
2023-06-09T23:30:06.313Z,2.25
2023-06-09T23:32:33.371Z,2.03
2023-06-09T23:35:00.182Z,2.25
2023-06-09T23:37:29.105Z,2.08
2023-06-09T23:39:59.472Z,2.22
2023-06-09T23:42:29.607Z,2.60
2023-06-09T23:44:56.756Z,2.60
2023-06-09T23:47:23.656Z,2.45
2023-06-09T23:49:50.522Z,2.63
2023-06-09T23:52:17.439Z,2.95
2023-06-09T23:54:44.504Z,2.80
2023-06-09T23:57:13.397Z,2.83
2023-06-09T23:59:40.844Z,2.58
